Time;durP1;ratioP1;P1;durP2;ratioP2;P2;SDS_P1;SDS_P2;PMS_P1;PMS_P2;Temp;Humidity;BMP_temperature;BMP_pressure;BME280_temperature;BME280_humidity;BME280_pressure;Samples;Min_cycle;Max_cycle;Signal;HPM_P1;HPM_P2
2022/03/12 00:00:27;;;;;;;;;;;;;;;-143.90;38.10;54968.25;2095937;28;20505;-65
2022/03/12 00:01:48;;;;;;;;;;;;;;;-143.90;38.13;54964.28;2095444;28;19927;-65
2022/03/12 00:03:09;;;;;;;;;;;;;;;-143.90;38.12;54936.50;2095854;28;19927;-65
2022/03/12 00:04:30;;;;;;;;;;;;;;;-143.90;38.11;54986.13;2095985;28;19989;-64
2022/03/12 00:05:58;;;;;;;;;;;;;;;-143.90;37.85;54968.25;2095853;28;19974;-66
2022/03/12 00:07:19;;;;;;;;;;;;;;;-143.90;38.00;54970.25;2097667;28;19920;-66
2022/03/12 00:08:43;;;;;;;;;;;;;;;-143.90;37.92;54972.22;2095521;28;19926;-66
2022/03/12 00:10:05;;;;;;;;;;;;;;;-143.90;37.98;54948.41;2096599;28;20816;-65
2022/03/12 00:11:27;;;;;;;;;;;;;;;-143.90;37.93;54984.16;2096123;28;19924;-65
2022/03/12 00:12:48;;;;;;;;;;;;;;;-143.90;37.78;54996.06;2095085;28;19925;-64
2022/03/12 00:14:09;;;;;;;;;;;;;;;-143.90;37.95;54962.31;2096663;28;20474;-65
2022/03/12 00:15:32;;;;;;;;;;;;;;;-143.90;37.77;54956.34;2097728;28;20283;-64
2022/03/12 00:16:53;;;;;;;;;;;;;;;-143.90;37.82;54988.13;2097655;28;20069;-63
2022/03/12 00:18:17;;;;;;;;;;;;;;;-143.90;37.79;55007.97;2096256;28;19932;-65
2022/03/12 00:19:38;;;;;;;;;;;;;;;-143.90;37.87;54990.09;2095678;28;20273;-66
2022/03/12 00:21:01;;;;;;;;;;;;;;;-143.90;37.80;54988.13;2097114;28;20873;-65
2022/03/12 00:22:22;;;;;;;;;;;;;;;-143.90;37.83;55000.03;2096838;28;20074;-65
2022/03/12 00:23:44;;;;;;;;;;;;;;;-143.90;38.10;54948.41;2097076;28;19920;-64
2022/03/12 00:25:11;;;;;;;;;;;;;;;-143.90;37.70;54992.09;2095920;28;19920;-65
2022/03/12 00:26:33;;;;;;;;;;;;;;;-143.90;37.70;54968.25;2095939;28;19920;-66
2022/03/12 00:27:53;;;;;;;;;;;;;;;-143.90;37.83;54932.53;2095391;28;19927;-65
2022/03/12 00:29:14;;;;;;;;;;;;;;;-143.90;37.47;54976.19;2095146;28;19966;-65
2022/03/12 00:30:35;;;;;;;;;;;;;;;-143.90;37.05;55002.00;2097707;28;19920;-65
2022/03/12 00:31:56;;;;;;;;;;;;;;;-143.90;37.60;54936.50;2096957;28;19929;-65
2022/03/12 00:33:20;;;;;;;;;;;;;;;-143.90;37.51;54944.44;2097030;28;19927;-65
2022/03/12 00:34:41;;;;;;;;;;;;;;;-143.90;37.52;54962.31;2097555;28;19924;-66
2022/03/12 00:36:02;;;;;;;;;;;;;;;-143.90;37.85;54916.63;2094644;28;20474;-65
2022/03/12 00:37:23;;;;;;;;;;;;;;;-143.90;37.55;54964.28;2095360;28;20015;-65
2022/03/12 00:38:47;;;;;;;;;;;;;;;-143.90;37.36;54976.19;2095483;28;19920;-65
2022/03/12 00:40:08;;;;;;;;;;;;;;;-143.90;37.49;54982.16;2097808;28;20370;-65
2022/03/12 00:41:29;;;;;;;;;;;;;;;-143.90;37.55;54952.38;2097357;28;20011;-65
2022/03/12 00:42:50;;;;;;;;;;;;;;;-143.90;37.74;54996.06;2096745;28;19924;-65
2022/03/12 00:44:16;;;;;;;;;;;;;;;-143.90;37.55;54932.53;2096688;28;20532;-65
2022/03/12 00:45:37;;;;;;;;;;;;;;;-143.90;37.40;54996.06;2096105;28;20657;-65
2022/03/12 00:46:58;;;;;;;;;;;;;;;-143.90;37.44;54944.44;2095906;28;19920;-65
2022/03/12 00:48:19;;;;;;;;;;;;;;;-143.90;37.49;54998.03;2095993;28;20883;-65
2022/03/12 00:49:40;;;;;;;;;;;;;;;-143.90;37.80;54982.16;2095226;28;19921;-65
2022/03/12 00:51:00;;;;;;;;;;;;;;;-143.90;37.49;54984.16;2097154;28;20418;-66
2022/03/12 00:52:21;;;;;;;;;;;;;;;-143.90;37.80;55000.03;2096513;28;19920;-65
2022/03/12 00:53:42;;;;;;;;;;;;;;;-143.90;37.57;54972.22;2095877;28;20745;-66
2022/03/12 00:55:03;;;;;;;;;;;;;;;-143.90;37.58;55009.97;2095067;28;19919;-64
2022/03/12 00:56:24;;;;;;;;;;;;;;;-143.90;37.64;54952.38;2095949;28;19920;-65
2022/03/12 00:57:44;;;;;;;;;;;;;;;-143.90;37.84;54950.38;2095807;28;19927;-65
2022/03/12 00:59:05;;;;;;;;;;;;;;;-143.90;37.91;54968.25;2097459;28;20360;-65
2022/03/12 01:00:26;;;;;;;;;;;;;;;-143.90;37.99;54982.16;2087832;28;19924;-64
2022/03/12 01:01:47;;;;;;;;;;;;;;;-143.90;38.11;54980.19;2095360;28;19920;-65
2022/03/12 01:03:07;;;;;;;;;;;;;;;-143.90;37.99;54978.19;2097491;28;19943;-65
2022/03/12 01:04:28;;;;;;;;;;;;;;;-143.90;37.95;54960.31;2097446;28;20442;-66
2022/03/12 01:05:49;;;;;;;;;;;;;;;-143.90;38.11;54982.16;2098534;28;19974;-65
2022/03/12 01:07:10;;;;;;;;;;;;;;;-143.90;37.96;54932.53;2096777;28;20001;-65
2022/03/12 01:08:31;;;;;;;;;;;;;;;-143.90;37.96;54988.13;2097378;28;20446;-65
2022/03/12 01:09:52;;;;;;;;;;;;;;;-143.90;37.96;54912.66;2096834;28;19924;-65
2022/03/12 01:11:13;;;;;;;;;;;;;;;-143.90;38.14;54984.16;2096964;28;20478;-64
2022/03/12 01:12:34;;;;;;;;;;;;;;;-143.90;37.93;54968.25;2097308;28;19927;-65
2022/03/12 01:13:54;;;;;;;;;;;;;;;-143.90;38.33;54996.06;2099408;28;19927;-62
2022/03/12 01:15:15;;;;;;;;;;;;;;;-143.90;37.84;54964.28;2099115;28;19965;-65
2022/03/12 01:16:36;;;;;;;;;;;;;;;-143.90;37.93;54986.13;2095431;28;19932;-65
2022/03/12 01:17:57;;;;;;;;;;;;;;;-143.90;37.93;54994.06;2097884;28;19924;-64
2022/03/12 01:19:18;;;;;;;;;;;;;;;-143.90;38.01;54988.13;2095825;28;19928;-64
2022/03/12 01:20:40;;;;;;;;;;;;;;;-143.90;38.00;54980.19;2097438;28;20355;-64
2022/03/12 01:22:02;;;;;;;;;;;;;;;-143.90;38.06;54980.19;2089893;28;19928;-63
2022/03/12 01:23:27;;;;;;;;;;;;;;;-143.90;37.95;54980.19;2096032;28;19952;-65
2022/03/12 01:24:47;;;;;;;;;;;;;;;-143.90;37.91;54980.19;2098889;28;19959;-64
2022/03/12 01:26:09;;;;;;;;;;;;;;;-143.90;38.12;54988.13;2097662;28;19924;-65
2022/03/12 01:27:31;;;;;;;;;;;;;;;-143.90;37.89;54966.28;2096321;28;19920;-65
2022/03/12 01:28:52;;;;;;;;;;;;;;;-143.90;37.94;54940.47;2098208;28;19947;-64
2022/03/12 01:30:13;;;;;;;;;;;;;;;-143.90;37.96;54984.16;2096617;28;19982;-64
2022/03/12 01:31:34;;;;;;;;;;;;;;;-143.90;37.88;54960.31;2090521;28;20089;-65
2022/03/12 01:32:55;;;;;;;;;;;;;;;-143.90;38.00;54952.38;2096909;27;20036;-65
2022/03/12 01:34:16;;;;;;;;;;;;;;;-143.90;37.78;54964.28;2096509;28;19928;-65
2022/03/12 01:35:38;;;;;;;;;;;;;;;-143.90;38.03;54980.19;2096334;28;20043;-65
2022/03/12 01:36:59;;;;;;;;;;;;;;;-143.90;38.20;54956.34;2097362;28;19920;-64
2022/03/12 01:38:26;;;;;;;;;;;;;;;-143.90;38.02;54992.09;2097812;28;19964;-64
2022/03/12 01:39:47;;;;;;;;;;;;;;;-143.90;38.28;54940.47;2095108;28;19920;-63
2022/03/12 01:41:10;;;;;;;;;;;;;;;-143.90;38.21;54956.34;2096357;28;19927;-64
2022/03/12 01:42:31;;;;;;;;;;;;;;;-143.90;38.35;54968.25;2096465;28;19921;-65
2022/03/12 01:43:53;;;;;;;;;;;;;;;-143.90;38.31;54948.41;2096718;28;20890;-65
2022/03/12 01:45:22;;;;;;;;;;;;;;;-143.90;38.15;54960.31;2096775;28;19955;-65
2022/03/12 01:46:44;;;;;;;;;;;;;;;-143.90;38.28;54956.34;2097039;28;20553;-65
2022/03/12 01:48:05;;;;;;;;;;;;;;;-143.90;38.32;54990.09;2097914;28;20034;-64
2022/03/12 01:49:26;;;;;;;;;;;;;;;-143.90;38.39;54972.22;2104993;28;20509;-66
2022/03/12 01:50:47;;;;;;;;;;;;;;;-143.90;38.37;54940.47;2099998;28;19923;-63
2022/03/12 01:52:08;;;;;;;;;;;;;;;-143.90;38.69;54976.19;2096459;28;20472;-65
2022/03/12 01:53:28;;;;;;;;;;;;;;;-143.90;38.37;54956.34;2097414;28;20003;-64
2022/03/12 01:54:49;;;;;;;;;;;;;;;-143.90;38.39;54992.09;2096231;28;19931;-65
2022/03/12 01:56:10;;;;;;;;;;;;;;;-143.90;38.17;54984.16;2097480;28;20027;-63
2022/03/12 01:57:32;;;;;;;;;;;;;;;-143.90;38.33;54944.44;2096819;28;19920;-65
2022/03/12 01:58:52;;;;;;;;;;;;;;;-143.90;38.20;54992.09;2106758;27;19938;-65
2022/03/12 02:00:23;;;;;;;;;;;;;;;-143.90;38.04;54976.19;2098854;28;19932;-64
2022/03/12 02:01:46;;;;;;;;;;;;;;;-143.90;38.09;54956.34;2095413;28;20020;-65
2022/03/12 02:03:08;;;;;;;;;;;;;;;-143.90;38.21;54936.50;2096373;28;19920;-65
2022/03/12 02:04:29;;;;;;;;;;;;;;;-143.90;37.87;55006.00;2096785;28;20002;-65
2022/03/12 02:05:50;;;;;;;;;;;;;;;-143.90;37.91;55000.03;2096675;28;19924;-65
2022/03/12 02:07:12;;;;;;;;;;;;;;;-143.90;38.00;54932.53;2098026;28;19946;-65
2022/03/12 02:08:32;;;;;;;;;;;;;;;-143.90;38.17;54980.19;2098574;28;20010;-65
2022/03/12 02:09:53;;;;;;;;;;;;;;;-143.90;37.98;54982.16;2096555;28;20039;-65
2022/03/12 02:11:14;;;;;;;;;;;;;;;-143.90;38.26;54984.16;2096890;28;20354;-65
2022/03/12 02:12:35;;;;;;;;;;;;;;;-143.90;37.85;54976.19;2095993;28;19924;-63
2022/03/12 02:14:06;;;;;;;;;;;;;;;-143.90;38.03;54980.19;2097491;28;19920;-65
2022/03/12 02:15:27;;;;;;;;;;;;;;;-143.90;37.93;54944.44;2097217;28;19920;-66
2022/03/12 02:16:53;;;;;;;;;;;;;;;-143.90;38.21;54980.19;2098041;28;19920;-65
2022/03/12 02:18:14;;;;;;;;;;;;;;;-143.90;38.03;54988.13;2097437;28;19916;-65
2022/03/12 02:19:40;;;;;;;;;;;;;;;-143.90;38.10;54964.28;2095986;28;19935;-65
2022/03/12 02:21:01;;;;;;;;;;;;;;;-143.90;38.01;54972.22;2097850;28;20394;-63
2022/03/12 02:22:21;;;;;;;;;;;;;;;-143.90;37.96;54968.25;2105481;28;20729;-65
2022/03/12 02:23:48;;;;;;;;;;;;;;;-143.90;38.04;54984.16;2099854;28;19920;-64
2022/03/12 02:25:09;;;;;;;;;;;;;;;-143.90;38.01;54970.25;2096773;28;19966;-64
2022/03/12 02:26:30;;;;;;;;;;;;;;;-143.90;38.06;54966.28;2097388;28;20491;-65
2022/03/12 02:27:50;;;;;;;;;;;;;;;-143.90;38.08;54966.28;2095241;28;20031;-64
2022/03/12 02:29:15;;;;;;;;;;;;;;;-143.90;38.15;54990.09;2098062;28;19920;-64
2022/03/12 02:30:48;;;;;;;;;;;;;;;-143.90;37.78;54984.16;2097211;28;20365;-65
2022/03/12 02:32:10;;;;;;;;;;;;;;;-143.90;37.88;54964.28;2098481;28;19924;-65
2022/03/12 02:33:31;;;;;;;;;;;;;;;-143.90;38.06;54996.06;2097726;28;19995;-64
2022/03/12 02:34:53;;;;;;;;;;;;;;;-143.90;38.11;54976.19;2097146;28;19924;-63
2022/03/12 02:36:26;;;;;;;;;;;;;;;-143.90;38.15;54960.31;2095231;28;19924;-64
2022/03/12 02:37:48;;;;;;;;;;;;;;;-143.90;38.21;54944.44;2103476;28;19981;-64
2022/03/12 02:39:08;;;;;;;;;;;;;;;-143.90;38.35;54964.28;2098941;28;19950;-64
2022/03/12 02:40:29;;;;;;;;;;;;;;;-143.90;38.01;54952.38;2096842;28;19925;-64
2022/03/12 02:41:50;;;;;;;;;;;;;;;-143.90;37.96;54952.38;2097454;28;19916;-66
2022/03/12 02:43:13;;;;;;;;;;;;;;;-143.90;37.67;54992.09;2096787;28;20397;-65
2022/03/12 02:44:33;;;;;;;;;;;;;;;-143.90;37.67;54960.31;2096047;28;19997;-64
2022/03/12 02:45:57;;;;;;;;;;;;;;;-143.90;37.84;54948.41;2096013;28;19927;-64
2022/03/12 02:47:28;;;;;;;;;;;;;;;-143.90;37.37;54976.19;2095236;28;19942;-64
2022/03/12 02:48:51;;;;;;;;;;;;;;;-143.90;37.70;54994.06;2096028;28;19920;-65
2022/03/12 02:50:14;;;;;;;;;;;;;;;-143.90;37.51;54996.06;2097312;28;19920;-65
2022/03/12 02:51:35;;;;;;;;;;;;;;;-143.90;37.49;54970.25;2097074;28;19939;-64
2022/03/12 02:52:55;;;;;;;;;;;;;;;-143.90;37.78;54978.19;2097123;28;19921;-65
2022/03/12 02:54:16;;;;;;;;;;;;;;;-143.90;37.68;54960.31;2095958;28;19932;-65
2022/03/12 02:55:40;;;;;;;;;;;;;;;-143.90;37.74;54982.16;2096902;28;19927;-65
2022/03/12 02:57:02;;;;;;;;;;;;;;;-143.90;37.85;54984.16;2096174;28;19927;-65
2022/03/12 02:58:41;;;;;;;;;;;;;;;-143.90;37.90;54948.41;2096745;28;19920;-65
2022/03/12 03:00:08;;;;;;;;;;;;;;;-143.90;37.84;54960.31;2097063;28;19927;-64
2022/03/12 03:01:32;;;;;;;;;;;;;;;-143.90;37.92;54964.28;2088916;28;20345;-65
2022/03/12 03:02:53;;;;;;;;;;;;;;;-143.90;37.96;54960.31;2095890;28;19921;-63
2022/03/12 03:04:14;;;;;;;;;;;;;;;-143.90;37.80;54976.19;2096148;28;19921;-65
2022/03/12 03:05:45;;;;;;;;;;;;;;;-143.90;37.98;54946.41;2097264;28;19963;-64
2022/03/12 03:07:07;;;;;;;;;;;;;;;-143.90;38.24;55000.03;2094784;28;19924;-65
2022/03/12 03:08:28;;;;;;;;;;;;;;;-143.90;38.18;54982.16;2096753;28;19924;-65
2022/03/12 03:09:49;;;;;;;;;;;;;;;-143.90;38.25;54984.16;2096528;28;19924;-65
2022/03/12 03:11:14;;;;;;;;;;;;;;;-143.90;38.13;54946.41;2097426;28;19940;-65
2022/03/12 03:12:35;;;;;;;;;;;;;;;-143.90;38.30;54980.19;2093909;28;20482;-65
2022/03/12 03:13:56;;;;;;;;;;;;;;;-143.90;38.39;54948.41;2096045;28;20370;-65
2022/03/12 03:15:18;;;;;;;;;;;;;;;-143.90;38.44;54960.31;2096406;28;19924;-65
2022/03/12 03:16:39;;;;;;;;;;;;;;;-143.90;38.38;55000.03;2097063;28;19939;-63
2022/03/12 03:18:05;;;;;;;;;;;;;;;-143.90;38.50;54948.41;2097329;28;19928;-64
2022/03/12 03:19:26;;;;;;;;;;;;;;;-143.90;38.44;54968.25;2095553;28;20325;-64
2022/03/12 03:20:48;;;;;;;;;;;;;;;-143.90;38.47;54970.25;2095799;28;20026;-65
2022/03/12 03:22:08;;;;;;;;;;;;;;;-143.90;38.72;54986.13;2095821;28;20752;-64
2022/03/12 03:23:30;;;;;;;;;;;;;;;-143.90;38.49;54936.50;2096861;28;19998;-65
2022/03/12 03:24:50;;;;;;;;;;;;;;;-143.90;38.33;54972.22;2095954;28;19999;-65
2022/03/12 03:26:11;;;;;;;;;;;;;;;-143.90;38.70;54920.59;2097389;28;20504;-65
2022/03/12 03:27:32;;;;;;;;;;;;;;;-143.90;38.64;54968.25;2097036;28;20036;-62
2022/03/12 03:28:53;;;;;;;;;;;;;;;-143.90;38.64;54958.34;2096940;28;19924;-64
2022/03/12 03:30:13;;;;;;;;;;;;;;;-143.90;38.73;54950.38;2097100;28;19920;-64
2022/03/12 03:31:34;;;;;;;;;;;;;;;-143.90;38.30;54952.38;2095454;28;20399;-65
2022/03/12 03:32:55;;;;;;;;;;;;;;;-143.90;38.20;54978.19;2097452;28;20014;-64
2022/03/12 03:34:16;;;;;;;;;;;;;;;-143.90;38.62;54958.34;2096853;28;19975;-64
2022/03/12 03:35:40;;;;;;;;;;;;;;;-143.90;38.52;54948.41;2097720;27;19927;-65
2022/03/12 03:37:02;;;;;;;;;;;;;;;-143.90;38.89;54960.31;2096729;28;20007;-64
2022/03/12 03:38:22;;;;;;;;;;;;;;;-143.90;38.73;54984.16;2097210;28;20332;-63
2022/03/12 03:39:43;;;;;;;;;;;;;;;-143.90;38.69;54960.31;2096512;28;19946;-65
2022/03/12 03:41:04;;;;;;;;;;;;;;;-143.90;39.06;54990.09;2096902;28;20245;-63
2022/03/12 03:42:24;;;;;;;;;;;;;;;-143.90;38.73;54966.28;2098463;28;19927;-64
2022/03/12 03:43:46;;;;;;;;;;;;;;;-143.90;38.58;55004.00;2097810;28;19959;-64
2022/03/12 03:45:07;;;;;;;;;;;;;;;-143.90;38.84;54938.47;2103749;28;19930;-65
2022/03/12 03:46:28;;;;;;;;;;;;;;;-143.90;38.80;54968.25;2098427;28;19927;-64
2022/03/12 03:47:52;;;;;;;;;;;;;;;-143.90;39.25;54952.38;2096990;28;19921;-63
2022/03/12 03:49:13;;;;;;;;;;;;;;;-143.90;39.21;54966.28;2096702;28;19924;-63
2022/03/12 03:50:34;;;;;;;;;;;;;;;-143.90;39.42;54944.44;2096585;28;20010;-63
2022/03/12 03:51:56;;;;;;;;;;;;;;;-143.90;39.19;54968.25;2097577;28;19920;-65
2022/03/12 03:53:17;;;;;;;;;;;;;;;-143.90;39.36;54960.31;2095641;28;20420;-65
2022/03/12 03:54:42;;;;;;;;;;;;;;;-143.90;39.26;54986.13;2093484;28;19971;-64
2022/03/12 03:56:03;;;;;;;;;;;;;;;-143.90;39.51;54956.34;2095986;28;19920;-65
2022/03/12 03:57:25;;;;;;;;;;;;;;;-143.90;39.51;54952.38;2097533;28;19920;-64
2022/03/12 03:58:46;;;;;;;;;;;;;;;-143.90;39.32;54956.34;2096314;28;19924;-63
2022/03/12 04:00:06;;;;;;;;;;;;;;;-143.90;39.40;55011.94;2096932;28;19930;-63
2022/03/12 04:01:33;;;;;;;;;;;;;;;-143.90;39.45;54966.28;2096638;28;19990;-64
2022/03/12 04:03:02;;;;;;;;;;;;;;;-143.90;39.73;54968.25;2103938;28;20319;-65
2022/03/12 04:04:23;;;;;;;;;;;;;;;-143.90;39.56;54984.16;2100314;28;19957;-64
2022/03/12 04:05:44;;;;;;;;;;;;;;;-143.90;39.59;55000.03;2096637;28;19986;-63
2022/03/12 04:07:05;;;;;;;;;;;;;;;-143.90;39.97;55007.97;2098184;28;20013;-64
2022/03/12 04:08:26;;;;;;;;;;;;;;;-143.90;39.68;54996.06;2097918;28;20529;-65
2022/03/12 04:09:46;;;;;;;;;;;;;;;-143.90;40.19;54984.16;2087948;28;19996;-64
2022/03/12 04:11:08;;;;;;;;;;;;;;;-143.90;39.81;55000.03;2092145;28;20360;-63
2022/03/12 04:12:29;;;;;;;;;;;;;;;-143.90;40.02;54976.19;2097748;28;19920;-64
2022/03/12 04:13:50;;;;;;;;;;;;;;;-143.90;39.97;54920.59;2096940;28;19920;-64
2022/03/12 04:15:12;;;;;;;;;;;;;;;-143.90;39.86;54946.41;2094567;28;19920;-65
2022/03/12 04:16:33;;;;;;;;;;;;;;;-143.90;40.10;54940.47;2097609;28;20030;-64
2022/03/12 04:17:54;;;;;;;;;;;;;;;-143.90;40.34;54952.38;2096641;28;19924;-62
2022/03/12 04:19:16;;;;;;;;;;;;;;;-143.90;40.45;54944.44;2101963;28;20001;-63
2022/03/12 04:20:38;;;;;;;;;;;;;;;-143.90;40.48;54962.31;2098079;28;19959;-65
2022/03/12 04:21:59;;;;;;;;;;;;;;;-143.90;40.33;54916.63;2096621;28;19920;-64
2022/03/12 04:23:21;;;;;;;;;;;;;;;-143.90;40.60;54956.34;2096302;28;19920;-65
2022/03/12 04:24:42;;;;;;;;;;;;;;;-143.90;40.64;54996.06;2097222;28;19924;-65
2022/03/12 04:26:03;;;;;;;;;;;;;;;-143.90;40.69;54948.41;2096933;28;19920;-64
2022/03/12 04:27:24;;;;;;;;;;;;;;;-143.90;40.82;54992.09;2095964;28;19947;-63
2022/03/12 04:28:45;;;;;;;;;;;;;;;-143.90;40.68;54964.28;2096395;28;19979;-61
2022/03/12 04:30:06;;;;;;;;;;;;;;;-143.90;40.86;54960.31;2096368;28;20285;-65
2022/03/12 04:31:27;;;;;;;;;;;;;;;-143.90;40.88;54956.34;2095875;28;19920;-64
2022/03/12 04:32:48;;;;;;;;;;;;;;;-143.90;41.12;54936.50;2096389;28;19921;-63
2022/03/12 04:34:08;;;;;;;;;;;;;;;-143.90;41.19;54968.25;2104593;28;19924;-65
2022/03/12 04:35:31;;;;;;;;;;;;;;;-143.90;41.47;54964.28;2098555;28;19920;-64
2022/03/12 04:36:52;;;;;;;;;;;;;;;-143.90;41.60;54978.19;2096381;28;19934;-65
2022/03/12 04:38:14;;;;;;;;;;;;;;;-143.90;41.89;54960.31;2097235;28;19947;-64
2022/03/12 04:39:34;;;;;;;;;;;;;;;-143.90;42.03;54960.31;2098085;28;19927;-64
2022/03/12 04:40:56;;;;;;;;;;;;;;;-143.90;42.00;54964.28;2098206;28;19924;-65
2022/03/12 04:42:21;;;;;;;;;;;;;;;-143.90;42.15;54928.56;2097961;28;19925;-64
2022/03/12 04:43:42;;;;;;;;;;;;;;;-143.90;42.38;54986.13;2098617;28;20341;-62
2022/03/12 04:45:03;;;;;;;;;;;;;;;-143.90;42.41;54946.41;2098387;28;20385;-64
2022/03/12 04:46:24;;;;;;;;;;;;;;;-143.90;42.44;54956.34;2097190;28;19927;-65
2022/03/12 04:47:45;;;;;;;;;;;;;;;-143.90;42.38;54968.25;2098088;28;19919;-65
2022/03/12 04:49:07;;;;;;;;;;;;;;;-143.90;42.48;54978.19;2096500;28;19945;-65
2022/03/12 04:50:27;;;;;;;;;;;;;;;-143.90;42.24;54960.31;2096366;28;19921;-67
2022/03/12 04:51:48;;;;;;;;;;;;;;;-143.90;42.57;54958.34;2098175;28;20368;-64
2022/03/12 04:53:09;;;;;;;;;;;;;;;-143.90;42.65;54976.19;2099326;28;20297;-64
2022/03/12 04:54:32;;;;;;;;;;;;;;;-143.90;42.59;54956.34;2096359;28;19931;-64
2022/03/12 04:55:56;;;;;;;;;;;;;;;-143.90;42.66;54992.09;2097348;28;20663;-65
2022/03/12 04:57:19;;;;;;;;;;;;;;;-143.90;42.76;54952.38;2095660;28;19949;-65
2022/03/12 04:58:40;;;;;;;;;;;;;;;-143.90;42.70;54988.13;2098030;28;20384;-65
2022/03/12 05:00:02;;;;;;;;;;;;;;;-143.90;42.75;54964.28;2097503;28;19920;-65
2022/03/12 05:01:24;;;;;;;;;;;;;;;-143.90;42.65;54908.69;2098759;28;19963;-65
2022/03/12 05:02:45;;;;;;;;;;;;;;;-143.90;42.56;54948.41;2097863;28;19920;-66
2022/03/12 05:04:06;;;;;;;;;;;;;;;-143.90;42.79;54932.53;2098438;28;19920;-64
2022/03/12 05:05:26;;;;;;;;;;;;;;;-143.90;42.71;54966.28;2105391;28;19927;-64
2022/03/12 05:06:47;;;;;;;;;;;;;;;-143.90;42.79;54964.28;2101946;27;20026;-65
2022/03/12 05:08:09;;;;;;;;;;;;;;;-143.90;42.83;54988.13;2098568;28;19927;-62
2022/03/12 05:09:30;;;;;;;;;;;;;;;-143.90;42.90;54972.22;2096253;28;20809;-65
2022/03/12 05:10:52;;;;;;;;;;;;;;;-143.90;43.05;54970.25;2097377;28;19920;-64
2022/03/12 05:12:20;;;;;;;;;;;;;;;-143.90;43.02;54980.19;2097342;28;19928;-65
2022/03/12 05:13:42;;;;;;;;;;;;;;;-143.90;43.21;54996.06;2088699;28;19943;-64
2022/03/12 05:15:05;;;;;;;;;;;;;;;-143.90;43.34;54938.47;2087572;28;19924;-65
2022/03/12 05:16:28;;;;;;;;;;;;;;;-143.90;43.45;54960.31;2094429;28;20755;-65
2022/03/12 05:17:51;;;;;;;;;;;;;;;-143.90;43.62;55035.78;2098173;28;20635;-64
2022/03/12 05:19:14;;;;;;;;;;;;;;;-143.90;43.73;54980.19;2098586;28;20048;-65
2022/03/12 05:20:36;;;;;;;;;;;;;;;-143.90;43.85;54968.25;2097501;28;19989;-65
2022/03/12 05:21:56;;;;;;;;;;;;;;;-143.90;43.96;54942.44;2097032;28;20764;-65
2022/03/12 05:23:17;;;;;;;;;;;;;;;-143.90;44.12;54960.31;2095875;28;20026;-65
2022/03/12 05:24:39;;;;;;;;;;;;;;;-143.90;44.22;54948.41;2089228;28;19924;-65
2022/03/12 05:25:59;;;;;;;;;;;;;;;-143.90;44.29;54988.13;2097012;28;19920;-65
2022/03/12 05:27:20;;;;;;;;;;;;;;;-143.90;44.49;54968.25;2098272;28;19920;-66
2022/03/12 05:28:41;;;;;;;;;;;;;;;-143.90;44.62;55011.94;2098083;28;20817;-65
2022/03/12 05:30:02;;;;;;;;;;;;;;;-143.90;44.88;54962.31;2097648;28;19920;-65
2022/03/12 05:31:24;;;;;;;;;;;;;;;-143.90;45.26;54988.13;2095799;28;19921;-65
2022/03/12 05:32:45;;;;;;;;;;;;;;;-143.90;45.20;54952.38;2097326;28;20019;-66
2022/03/12 05:34:07;;;;;;;;;;;;;;;-143.90;45.40;54984.16;2098267;28;19920;-65
2022/03/12 05:35:28;;;;;;;;;;;;;;;-143.90;45.55;54992.09;2114291;27;19926;-63
2022/03/12 05:36:49;;;;;;;;;;;;;;;-143.90;45.93;54996.06;2102784;27;20019;-64
2022/03/12 05:38:11;;;;;;;;;;;;;;;-143.90;46.26;54964.28;2096185;28;20441;-65
2022/03/12 05:39:32;;;;;;;;;;;;;;;-143.90;46.24;54962.31;2099014;28;19920;-65
2022/03/12 05:40:52;;;;;;;;;;;;;;;-143.90;46.63;54948.41;2097148;28;20022;-65
2022/03/12 05:42:17;;;;;;;;;;;;;;;-143.90;46.84;54968.25;2098012;28;19927;-65
2022/03/12 05:43:40;;;;;;;;;;;;;;;-143.90;47.03;54982.16;2097029;28;19970;-66
2022/03/12 05:45:02;;;;;;;;;;;;;;;-143.90;47.29;55004.00;2097425;28;20922;-64
2022/03/12 05:46:23;;;;;;;;;;;;;;;-143.90;47.52;54988.13;2097117;28;20376;-65
2022/03/12 05:47:45;;;;;;;;;;;;;;;-143.90;47.61;54976.19;2095982;28;19920;-65
2022/03/12 05:49:06;;;;;;;;;;;;;;;-143.90;47.74;55002.00;2096582;28;20091;-65
2022/03/12 05:50:27;;;;;;;;;;;;;;;-143.90;48.06;55000.03;2097708;28;19946;-64
2022/03/12 05:51:47;;;;;;;;;;;;;;;-143.90;48.25;55015.91;2097548;28;19936;-63
2022/03/12 05:53:09;;;;;;;;;;;;;;;-143.90;48.64;54964.28;2097758;28;19940;-64
2022/03/12 05:54:30;;;;;;;;;;;;;;;-143.90;48.65;54984.16;2095456;28;20496;-65
2022/03/12 05:55:51;;;;;;;;;;;;;;;-143.90;48.91;54962.31;2097104;28;20488;-64
2022/03/12 05:57:11;;;;;;;;;;;;;;;-143.90;48.81;55004.00;2104175;28;19920;-64
2022/03/12 05:58:39;;;;;;;;;;;;;;;-143.90;49.03;54972.22;2099173;28;20486;-65
2022/03/12 06:00:03;;;;;;;;;;;;;;;-143.90;49.15;54988.13;2097329;28;20010;-65
2022/03/12 06:01:33;;;;;;;;;;;;;;;-143.90;49.67;54984.16;2097571;28;19924;-65
2022/03/12 06:02:56;;;;;;;;;;;;;;;-143.90;49.74;54944.44;2097386;28;19923;-63
2022/03/12 06:04:25;;;;;;;;;;;;;;;-143.90;49.96;54972.22;2097421;28;19970;-65
2022/03/12 06:05:47;;;;;;;;;;;;;;;-143.90;50.12;54994.06;2096976;28;19969;-65
2022/03/12 06:07:09;;;;;;;;;;;;;;;-143.90;50.36;54956.34;2095812;28;19935;-64
2022/03/12 06:08:30;;;;;;;;;;;;;;;-143.90;50.45;54976.19;2096761;28;20003;-64
2022/03/12 06:09:51;;;;;;;;;;;;;;;-143.90;50.44;54976.19;2097371;28;20035;-65
2022/03/12 06:11:12;;;;;;;;;;;;;;;-143.90;50.45;54992.09;2097319;28;19920;-62
2022/03/12 06:12:34;;;;;;;;;;;;;;;-143.90;50.68;54992.09;2097144;28;19924;-64
2022/03/12 06:13:59;;;;;;;;;;;;;;;-143.90;50.92;54998.03;2095362;28;20280;-66
2022/03/12 06:15:20;;;;;;;;;;;;;;;-143.90;50.86;54984.16;2095822;28;19920;-64
2022/03/12 06:16:47;;;;;;;;;;;;;;;-143.90;50.76;54994.06;2096401;28;19965;-65
2022/03/12 06:18:11;;;;;;;;;;;;;;;-143.90;51.06;54966.28;2096427;28;19920;-65
2022/03/12 06:19:32;;;;;;;;;;;;;;;-143.90;51.07;54952.38;2097275;28;19931;-65
2022/03/12 06:20:52;;;;;;;;;;;;;;;-143.90;50.96;54972.22;2097651;28;20035;-65
2022/03/12 06:22:13;;;;;;;;;;;;;;;-143.90;50.91;54944.44;2096151;28;19920;-64
2022/03/12 06:23:34;;;;;;;;;;;;;;;-143.90;50.78;54948.41;2095883;28;20477;-65
2022/03/12 06:24:54;;;;;;;;;;;;;;;-143.90;50.77;55004.00;2097137;28;19931;-65
2022/03/12 06:26:16;;;;;;;;;;;;;;;-143.90;50.55;54962.31;2096383;28;19920;-65
2022/03/12 06:27:37;;;;;;;;;;;;;;;-143.90;50.57;55023.84;2097428;28;19930;-65
2022/03/12 06:28:58;;;;;;;;;;;;;;;-143.90;50.57;54972.22;2096713;28;19944;-64
2022/03/12 06:30:20;;;;;;;;;;;;;;;-143.90;50.60;54966.28;2097502;28;20021;-64
2022/03/12 06:31:41;;;;;;;;;;;;;;;-143.90;50.52;54980.19;2096445;28;20007;-65
2022/03/12 06:33:05;;;;;;;;;;;;;;;-143.90;50.44;54942.44;2097293;28;19946;-65
2022/03/12 06:34:26;;;;;;;;;;;;;;;-143.90;49.62;55002.00;2095150;28;19935;-63
2022/03/12 06:35:47;;;;;;;;;;;;;;;-143.90;49.37;54996.06;2098091;28;19997;-65
2022/03/12 06:37:08;;;;;;;;;;;;;;;-143.90;48.49;54956.34;2096464;28;20007;-66
2022/03/12 06:38:32;;;;;;;;;;;;;;;-143.90;47.93;54940.47;2088866;28;19928;-65
2022/03/12 06:39:55;;;;;;;;;;;;;;;-143.90;47.29;54992.09;2093195;28;19928;-64
2022/03/12 06:41:17;;;;;;;;;;;;;;;-143.90;46.80;54960.31;2096901;28;19928;-64
2022/03/12 06:42:39;;;;;;;;;;;;;;;-143.90;46.71;54960.31;2087941;28;21851;-64
2022/03/12 06:43:59;;;;;;;;;;;;;;;-143.90;46.16;54964.28;2094439;28;19927;-66
2022/03/12 06:45:21;;;;;;;;;;;;;;;-143.90;45.77;54956.34;2096150;28;20469;-64
2022/03/12 06:46:43;;;;;;;;;;;;;;;-143.90;45.44;55023.84;2104604;28;20424;-63
2022/03/12 06:48:04;;;;;;;;;;;;;;;-143.90;45.59;54972.22;2099107;27;20043;-64
2022/03/12 06:49:25;;;;;;;;;;;;;;;-143.90;45.13;54980.19;2097158;28;20434;-64
2022/03/12 06:50:46;;;;;;;;;;;;;;;-143.90;45.56;54954.38;2093320;28;19986;-64
2022/03/12 06:52:07;;;;;;;;;;;;;;;-143.90;45.58;54988.13;2095760;28;19924;-64
2022/03/12 06:53:28;;;;;;;;;;;;;;;-143.90;45.61;54958.34;2096146;28;19931;-64
2022/03/12 06:54:49;;;;;;;;;;;;;;;-143.90;45.37;54968.25;2096294;28;19978;-63
2022/03/12 06:56:10;;;;;;;;;;;;;;;-143.90;44.86;54976.19;2095678;28;19975;-64